N87JW KSLC-KSDL
Flight info
| Callsign | N87JW |
|---|---|
| Flight time | N/A |
| Altitude | 29000 |
| Route | FFU9 BCE FLG DSERT2 |
| Aircraft | TBM8/L-SDFGRWY/S |
Departure
| Time | 2026-05-04 15:35 |
|---|---|
| Airport | Salt Lake City International Airport (KSLC) |
Arrival
| Time | N/A |
|---|---|
| Airport | Scottsdale Airport (KSDL) |
| Time | Latitude | Longitude | Altitude | Speed | Heading |
|---|---|---|---|---|---|
| 2026-05-04 14:51 | 40.77860 | -111.95874 | 4249 ft | 0 kts | 180° |
| 2026-05-04 15:26 | 40.77843 | -111.95876 | 4249 ft | 0 kts | 204° |
| 2026-05-04 15:27 | 40.77831 | -111.95903 | 4246 ft | 10 kts | 273° |
| 2026-05-04 15:27 | 40.77945 | -111.96003 | 4244 ft | 14 kts | 359° |
| 2026-05-04 15:28 | 40.78233 | -111.96004 | 4227 ft | 28 kts | 0° |
| 2026-05-04 15:28 | 40.78415 | -111.96003 | 4224 ft | 22 kts | 0° |
| 2026-05-04 15:28 | 40.78728 | -111.96003 | 4223 ft | 21 kts | 358° |
| 2026-05-04 15:29 | 40.78859 | -111.96006 | 4223 ft | 21 kts | 1° |
| 2026-05-04 15:30 | 40.79147 | -111.96083 | 4224 ft | 0 kts | 271° |
| 2026-05-04 15:33 | 40.79131 | -111.96207 | 4224 ft | 8 kts | 198° |
| 2026-05-04 15:34 | 40.79110 | -111.96208 | 4224 ft | 2 kts | 178° |
| 2026-05-04 15:34 | 40.78966 | -111.96203 | 4224 ft | 42 kts | 179° |
| 2026-05-04 15:34 | 40.77829 | -111.96208 | 4248 ft | 116 kts | 180° |
| 2026-05-04 15:35 | 40.76142 | -111.96153 | 4916 ft | 126 kts | 171° |
| 2026-05-04 15:35 | 40.75255 | -111.95908 | 5199 ft | 137 kts | 164° |
| 2026-05-04 15:35 | 40.74298 | -111.95536 | 5466 ft | 149 kts | 163° |
| 2026-05-04 15:36 | 40.72167 | -111.94980 | 6146 ft | 160 kts | 178° |
| 2026-05-04 15:36 | 40.71075 | -111.94935 | 6662 ft | 156 kts | 178° |
| 2026-05-04 15:36 | 40.69995 | -111.94919 | 7047 ft | 157 kts | 180° |
| 2026-05-04 15:37 | 40.68901 | -111.94903 | 7391 ft | 157 kts | 180° |
| 2026-05-04 15:37 | 40.67813 | -111.94882 | 7809 ft | 156 kts | 180° |
| 2026-05-04 15:37 | 40.66725 | -111.94861 | 8186 ft | 157 kts | 181° |
| 2026-05-04 15:37 | 40.65625 | -111.94842 | 8566 ft | 158 kts | 181° |
| 2026-05-04 15:38 | 40.64514 | -111.94822 | 8932 ft | 160 kts | 180° |
| 2026-05-04 15:38 | 40.63396 | -111.94799 | 9300 ft | 162 kts | 181° |
| 2026-05-04 15:38 | 40.62258 | -111.94776 | 9682 ft | 163 kts | 182° |
| 2026-05-04 15:38 | 40.61126 | -111.94752 | 10073 ft | 164 kts | 181° |
| 2026-05-04 15:39 | 40.59984 | -111.94728 | 10428 ft | 164 kts | 182° |
| 2026-05-04 15:39 | 40.58835 | -111.94705 | 10769 ft | 166 kts | 182° |
| 2026-05-04 15:39 | 40.56504 | -111.94660 | 11448 ft | 170 kts | 181° |
| 2026-05-04 15:40 | 40.55310 | -111.94639 | 11807 ft | 172 kts | 182° |
| 2026-05-04 15:40 | 40.54107 | -111.94618 | 12152 ft | 174 kts | 181° |
| 2026-05-04 15:40 | 40.52891 | -111.94593 | 12508 ft | 175 kts | 181° |
| 2026-05-04 15:40 | 40.51665 | -111.94566 | 12847 ft | 177 kts | 180° |
| 2026-05-04 15:41 | 40.50422 | -111.94535 | 13199 ft | 179 kts | 180° |
| 2026-05-04 15:41 | 40.49173 | -111.94508 | 13544 ft | 181 kts | 180° |
| 2026-05-04 15:41 | 40.47906 | -111.94483 | 13874 ft | 183 kts | 180° |
| 2026-05-04 15:41 | 40.46643 | -111.94457 | 14173 ft | 184 kts | 179° |
| 2026-05-04 15:42 | 40.45362 | -111.94431 | 14502 ft | 185 kts | 179° |
| 2026-05-04 15:42 | 40.44074 | -111.94404 | 14837 ft | 185 kts | 179° |
| 2026-05-04 15:42 | 40.42783 | -111.94377 | 15151 ft | 186 kts | 179° |
| 2026-05-04 15:42 | 40.41499 | -111.94351 | 15469 ft | 187 kts | 179° |
| 2026-05-04 15:43 | 40.40222 | -111.94326 | 15782 ft | 188 kts | 179° |
| 2026-05-04 15:43 | 40.38943 | -111.94299 | 16102 ft | 189 kts | 179° |
| 2026-05-04 15:43 | 40.37627 | -111.94272 | 16455 ft | 189 kts | 179° |
| 2026-05-04 15:43 | 40.36306 | -111.94245 | 16789 ft | 190 kts | 179° |
| 2026-05-04 15:44 | 40.34980 | -111.94217 | 17116 ft | 192 kts | 179° |
| 2026-05-04 15:44 | 40.33643 | -111.94186 | 17457 ft | 192 kts | 179° |
| 2026-05-04 15:44 | 40.32320 | -111.94157 | 17794 ft | 193 kts | 179° |
| 2026-05-04 15:44 | 40.30972 | -111.94130 | 18135 ft | 194 kts | 179° |
| 2026-05-04 15:45 | 40.29620 | -111.94103 | 18434 ft | 195 kts | 179° |
| 2026-05-04 15:45 | 40.28265 | -111.94076 | 18728 ft | 195 kts | 179° |
| 2026-05-04 15:45 | 40.26907 | -111.94142 | 19017 ft | 195 kts | 184° |
| 2026-05-04 15:45 | 40.25561 | -111.94348 | 19326 ft | 195 kts | 186° |
| 2026-05-04 15:46 | 40.24215 | -111.94545 | 19636 ft | 195 kts | 186° |
| 2026-05-04 15:46 | 40.22867 | -111.94738 | 19933 ft | 194 kts | 186° |
| 2026-05-04 15:46 | 40.21525 | -111.94932 | 20226 ft | 194 kts | 186° |
| 2026-05-04 15:46 | 40.20174 | -111.95128 | 20502 ft | 196 kts | 186° |
| 2026-05-04 15:47 | 40.18836 | -111.95322 | 20802 ft | 196 kts | 186° |
| 2026-05-04 15:47 | 40.17484 | -111.95519 | 21102 ft | 195 kts | 186° |
| 2026-05-04 15:47 | 40.16123 | -111.95716 | 21367 ft | 197 kts | 186° |
| 2026-05-04 15:47 | 40.14760 | -111.95914 | 21638 ft | 198 kts | 186° |
| 2026-05-04 15:48 | 40.13389 | -111.96113 | 21912 ft | 198 kts | 186° |
| 2026-05-04 15:48 | 40.12016 | -111.96313 | 22189 ft | 199 kts | 186° |
| 2026-05-04 15:48 | 40.09255 | -111.96715 | 22742 ft | 200 kts | 187° |
| 2026-05-04 15:49 | 40.07868 | -111.96917 | 23015 ft | 201 kts | 187° |
| 2026-05-04 15:49 | 40.06476 | -111.97118 | 23235 ft | 201 kts | 187° |
| 2026-05-04 15:49 | 40.05080 | -111.97319 | 23484 ft | 202 kts | 187° |
| 2026-05-04 15:49 | 40.03680 | -111.97522 | 23712 ft | 203 kts | 188° |
| 2026-05-04 15:50 | 40.02274 | -111.97726 | 23940 ft | 203 kts | 188° |
| 2026-05-04 15:50 | 40.00869 | -111.97930 | 24169 ft | 203 kts | 189° |
| 2026-05-04 15:50 | 39.99481 | -111.98132 | 24394 ft | 203 kts | 189° |
| 2026-05-04 15:50 | 39.98074 | -111.98336 | 24618 ft | 204 kts | 190° |
| 2026-05-04 15:51 | 39.96662 | -111.98540 | 24838 ft | 204 kts | 191° |
| 2026-05-04 15:51 | 39.95248 | -111.98744 | 25065 ft | 204 kts | 191° |
| 2026-05-04 15:51 | 39.93834 | -111.98949 | 25282 ft | 205 kts | 192° |
| 2026-05-04 15:51 | 39.92417 | -111.99154 | 25499 ft | 205 kts | 192° |
| 2026-05-04 15:52 | 39.91001 | -111.99359 | 25722 ft | 205 kts | 193° |
| 2026-05-04 15:52 | 39.89580 | -111.99564 | 25937 ft | 205 kts | 193° |
| 2026-05-04 15:52 | 39.88157 | -111.99769 | 26151 ft | 205 kts | 194° |
| 2026-05-04 15:52 | 39.86731 | -111.99975 | 26364 ft | 206 kts | 194° |
| 2026-05-04 15:53 | 39.85325 | -112.00177 | 26583 ft | 206 kts | 195° |
| 2026-05-04 15:53 | 39.83900 | -112.00380 | 26790 ft | 206 kts | 195° |
| 2026-05-04 15:53 | 39.82477 | -112.00581 | 27006 ft | 206 kts | 196° |
| 2026-05-04 15:53 | 39.81055 | -112.00785 | 27227 ft | 205 kts | 197° |
| 2026-05-04 15:54 | 39.79632 | -112.00997 | 27410 ft | 205 kts | 197° |
| 2026-05-04 15:54 | 39.78209 | -112.01205 | 27637 ft | 206 kts | 197° |
| 2026-05-04 15:54 | 39.76788 | -112.01408 | 27846 ft | 206 kts | 198° |
| 2026-05-04 15:54 | 39.75363 | -112.01612 | 28046 ft | 206 kts | 198° |
| 2026-05-04 15:55 | 39.73940 | -112.01816 | 28248 ft | 206 kts | 199° |
| 2026-05-04 15:55 | 39.72514 | -112.02021 | 28439 ft | 206 kts | 199° |
| 2026-05-04 15:55 | 39.71084 | -112.02228 | 28595 ft | 208 kts | 199° |
| 2026-05-04 15:55 | 39.69661 | -112.02436 | 28769 ft | 208 kts | 200° |
| 2026-05-04 15:56 | 39.68202 | -112.02649 | 28810 ft | 215 kts | 199° |
| 2026-05-04 15:56 | 39.66688 | -112.02879 | 28836 ft | 222 kts | 199° |
| 2026-05-04 15:56 | 39.65128 | -112.03113 | 28826 ft | 229 kts | 199° |
| 2026-05-04 15:56 | 39.63518 | -112.03348 | 28828 ft | 236 kts | 198° |
| 2026-05-04 15:57 | 39.61862 | -112.03584 | 28815 ft | 241 kts | 198° |
| 2026-05-04 15:57 | 39.60172 | -112.03824 | 28831 ft | 246 kts | 198° |
| 2026-05-04 15:57 | 39.58452 | -112.04070 | 28834 ft | 251 kts | 198° |
| 2026-05-04 15:57 | 39.56700 | -112.04320 | 28835 ft | 255 kts | 198° |
| 2026-05-04 15:58 | 39.54925 | -112.04572 | 28829 ft | 259 kts | 198° |
| 2026-05-04 15:58 | 39.53124 | -112.04829 | 28828 ft | 261 kts | 198° |
| 2026-05-04 15:58 | 39.51307 | -112.05086 | 28825 ft | 264 kts | 197° |
| 2026-05-04 15:58 | 39.49474 | -112.05347 | 28826 ft | 266 kts | 197° |
| 2026-05-04 15:59 | 39.47647 | -112.05606 | 28823 ft | 268 kts | 197° |
| 2026-05-04 15:59 | 39.45792 | -112.05870 | 28822 ft | 270 kts | 197° |
| 2026-05-04 15:59 | 39.43918 | -112.06136 | 28825 ft | 271 kts | 197° |
| 2026-05-04 15:59 | 39.42029 | -112.06399 | 28824 ft | 274 kts | 197° |
| 2026-05-04 16:00 | 39.40129 | -112.06667 | 28805 ft | 275 kts | 197° |
| 2026-05-04 16:00 | 39.38217 | -112.06941 | 28812 ft | 277 kts | 197° |
| 2026-05-04 16:00 | 39.36297 | -112.07216 | 28811 ft | 278 kts | 197° |
| 2026-05-04 16:00 | 39.34372 | -112.07494 | 28818 ft | 279 kts | 197° |
| 2026-05-04 16:01 | 39.32431 | -112.07770 | 28822 ft | 281 kts | 197° |
| 2026-05-04 16:01 | 39.30487 | -112.08043 | 28826 ft | 282 kts | 197° |
| 2026-05-04 16:01 | 39.28532 | -112.08319 | 28825 ft | 283 kts | 197° |
| 2026-05-04 16:01 | 39.26599 | -112.08593 | 28825 ft | 284 kts | 197° |
| 2026-05-04 16:02 | 39.24632 | -112.08871 | 28824 ft | 285 kts | 197° |
| 2026-05-04 16:02 | 39.22656 | -112.09150 | 28832 ft | 286 kts | 197° |
| 2026-05-04 16:02 | 39.18698 | -112.09711 | 28830 ft | 286 kts | 197° |
| 2026-05-04 16:03 | 39.16716 | -112.09982 | 28834 ft | 286 kts | 195° |
| 2026-05-04 16:03 | 39.14741 | -112.10201 | 28820 ft | 283 kts | 195° |
| 2026-05-04 16:03 | 39.12792 | -112.10506 | 28843 ft | 281 kts | 198° |
| 2026-05-04 16:03 | 39.10848 | -112.10817 | 28856 ft | 282 kts | 197° |
| 2026-05-04 16:04 | 39.08893 | -112.11102 | 28876 ft | 282 kts | 197° |
| 2026-05-04 16:04 | 39.04981 | -112.11612 | 28855 ft | 282 kts | 196° |
| 2026-05-04 16:04 | 39.03044 | -112.11850 | 28812 ft | 278 kts | 197° |
| 2026-05-04 16:05 | 39.01133 | -112.12144 | 28839 ft | 275 kts | 197° |
| 2026-05-04 16:05 | 38.99239 | -112.12455 | 28842 ft | 274 kts | 198° |
| 2026-05-04 16:05 | 38.95429 | -112.12994 | 28910 ft | 276 kts | 197° |
| 2026-05-04 16:06 | 38.93541 | -112.13254 | 28916 ft | 277 kts | 197° |
| 2026-05-04 16:06 | 38.88402 | -112.13963 | 28913 ft | 278 kts | 197° |
| 2026-05-04 16:07 | 38.85849 | -112.14330 | 28900 ft | 279 kts | 197° |
| 2026-05-04 16:07 | 38.80065 | -112.15157 | 28874 ft | 279 kts | 197° |
| 2026-05-04 16:08 | 38.78786 | -112.15325 | 28879 ft | 279 kts | 197° |
| 2026-05-04 16:08 | 38.72984 | -112.16116 | 28856 ft | 279 kts | 198° |
| 2026-05-04 16:09 | 38.69215 | -112.16641 | 28867 ft | 278 kts | 198° |
| 2026-05-04 16:09 | 38.65368 | -112.17145 | 28839 ft | 277 kts | 198° |
| 2026-05-04 16:10 | 38.61553 | -112.17721 | 28832 ft | 276 kts | 198° |
| 2026-05-04 16:11 | 38.55850 | -112.18512 | 28861 ft | 276 kts | 198° |
| 2026-05-04 16:11 | 38.53935 | -112.18770 | 28870 ft | 276 kts | 198° |
| 2026-05-04 16:12 | 38.48217 | -112.19566 | 28863 ft | 276 kts | 198° |
| 2026-05-04 16:12 | 38.42466 | -112.20368 | 28875 ft | 278 kts | 198° |
| 2026-05-04 16:13 | 38.38611 | -112.20894 | 28863 ft | 278 kts | 198° |
| 2026-05-04 16:13 | 38.34761 | -112.21424 | 28860 ft | 278 kts | 198° |
| 2026-05-04 16:14 | 38.30951 | -112.21955 | 28846 ft | 276 kts | 198° |
| 2026-05-04 16:14 | 38.27130 | -112.22474 | 28857 ft | 275 kts | 198° |
| 2026-05-04 16:15 | 38.21437 | -112.23258 | 28864 ft | 274 kts | 199° |
| 2026-05-04 16:16 | 38.17652 | -112.23780 | 28876 ft | 273 kts | 199° |
| 2026-05-04 16:16 | 38.11969 | -112.24560 | 28876 ft | 274 kts | 199° |
| 2026-05-04 16:17 | 38.08215 | -112.25115 | 28861 ft | 274 kts | 199° |
| 2026-05-04 16:18 | 38.02526 | -112.25865 | 28897 ft | 274 kts | 199° |
| 2026-05-04 16:18 | 38.00625 | -112.26114 | 28913 ft | 275 kts | 199° |
| 2026-05-04 16:19 | 37.94882 | -112.26905 | 28980 ft | 278 kts | 199° |
| 2026-05-04 16:19 | 37.91039 | -112.27414 | 28990 ft | 277 kts | 199° |
| 2026-05-04 16:20 | 37.85286 | -112.28205 | 29006 ft | 277 kts | 200° |
| 2026-05-04 16:20 | 37.81457 | -112.28723 | 29031 ft | 276 kts | 200° |
| 2026-05-04 16:21 | 37.75756 | -112.29497 | 29069 ft | 276 kts | 200° |
| 2026-05-04 16:22 | 37.71932 | -112.30023 | 29061 ft | 276 kts | 200° |
| 2026-05-04 16:22 | 37.66011 | -112.29727 | 29049 ft | 298 kts | 183° |
| 2026-05-04 16:23 | 37.59942 | -112.28143 | 29036 ft | 296 kts | 184° |
| 2026-05-04 16:24 | 37.51854 | -112.26088 | 29019 ft | 297 kts | 184° |
| 2026-05-04 16:25 | 37.47782 | -112.25099 | 28998 ft | 297 kts | 185° |
| 2026-05-04 16:26 | 37.39634 | -112.22952 | 28895 ft | 298 kts | 184° |
| 2026-05-04 16:26 | 37.33558 | -112.21423 | 28874 ft | 296 kts | 185° |
| 2026-05-04 16:27 | 37.29544 | -112.20414 | 28868 ft | 295 kts | 185° |
| 2026-05-04 16:28 | 37.23500 | -112.18885 | 28853 ft | 295 kts | 184° |
| 2026-05-04 16:28 | 37.17491 | -112.17364 | 28854 ft | 292 kts | 185° |
| 2026-05-04 16:29 | 37.09585 | -112.15363 | 28850 ft | 288 kts | 185° |
| 2026-05-04 16:30 | 37.03695 | -112.13883 | 28859 ft | 287 kts | 185° |
| 2026-05-04 16:31 | 36.99774 | -112.12897 | 28866 ft | 288 kts | 185° |
| 2026-05-04 16:31 | 36.93936 | -112.11429 | 28858 ft | 285 kts | 185° |
| 2026-05-04 16:32 | 36.88114 | -112.09968 | 28861 ft | 283 kts | 186° |
| 2026-05-04 16:33 | 36.84252 | -112.09000 | 28869 ft | 283 kts | 185° |
| 2026-05-04 16:33 | 36.80389 | -112.08015 | 28844 ft | 282 kts | 185° |
| 2026-05-04 16:34 | 36.76559 | -112.07092 | 28781 ft | 278 kts | 187° |
| 2026-05-04 16:34 | 36.74694 | -112.06641 | 28799 ft | 275 kts | 186° |
| 2026-05-04 16:35 | 36.69111 | -112.05195 | 28808 ft | 270 kts | 186° |
| 2026-05-04 16:35 | 36.63627 | -112.03771 | 28829 ft | 265 kts | 187° |
| 2026-05-04 16:36 | 36.61822 | -112.03340 | 28849 ft | 264 kts | 188° |
| 2026-05-04 16:36 | 36.58197 | -112.02512 | 28865 ft | 266 kts | 187° |
| 2026-05-04 16:37 | 36.54548 | -112.01625 | 28824 ft | 267 kts | 187° |
| 2026-05-04 16:37 | 36.52745 | -112.01170 | 28845 ft | 268 kts | 187° |
| 2026-05-04 16:37 | 36.49089 | -112.00232 | 28838 ft | 268 kts | 187° |
| 2026-05-04 16:38 | 36.45437 | -111.99333 | 28858 ft | 268 kts | 187° |
| 2026-05-04 16:39 | 36.39922 | -111.97972 | 28862 ft | 270 kts | 187° |
| 2026-05-04 16:39 | 36.36250 | -111.97062 | 28854 ft | 271 kts | 187° |
| 2026-05-04 16:40 | 36.32560 | -111.96154 | 28858 ft | 271 kts | 187° |
| 2026-05-04 16:40 | 36.28851 | -111.95251 | 28831 ft | 271 kts | 188° |
| 2026-05-04 16:41 | 36.25155 | -111.94285 | 28838 ft | 271 kts | 186° |
| 2026-05-04 16:41 | 36.19671 | -111.92958 | 28886 ft | 268 kts | 188° |
| 2026-05-04 16:42 | 36.16015 | -111.92099 | 28878 ft | 267 kts | 188° |